2O7 weather

Independence Airport
Independence, California, United States

Public forecast

Using degrees Fahrenheit for public forecast. Weather courtesy of forecast.io.

METAR (pilot weather report)

Closest report is Eastern Sierra Regional Airport, 34.4 nm (63.8 km) NNW. Retrieved 2019/09/16 02:56 UTC (6 minutes ago):

KBIH 160256Z AUTO 04005KT 10SM CLR 21/M01 A2985 RMK AO2 SLP070 T02111011 53006

TAF (pilot weather forecast)

Forecast is more than 12 hours old.

Closest forecast is Eastern Sierra Regional Airport, 34.4 nm (63.8 km) NNW. Retrieved 2019/09/15 00:22 UTC (1 day ago):

TAF KBIH 152320Z 1600/1624 17012G22KT P6SM BKN250 FM160900 VRB06KT P6SM BKN250 FM161700 17012G22KT P6SM BKN250 FM162100 17020G30KT P6SM BKN200